sensor_id;sensor_type;location;lat;lon;timestamp;pressure;altitude;pressure_sealevel;temperature;humidity
12077;BME280;12420;42.676;23.262;2023-05-19T00:00:55;94819.16;;;13.53;100.00
12077;BME280;12420;42.676;23.262;2023-05-19T00:03:22;94819.28;;;13.48;100.00
12077;BME280;12420;42.676;23.262;2023-05-19T00:05:52;94807.78;;;13.43;100.00
12077;BME280;12420;42.676;23.262;2023-05-19T00:08:21;94813.00;;;13.47;100.00
12077;BME280;12420;42.676;23.262;2023-05-19T00:12:04;94819.72;;;13.52;100.00
12077;BME280;12420;42.676;23.262;2023-05-19T00:14:31;94814.53;;;13.56;100.00
12077;BME280;12420;42.676;23.262;2023-05-19T00:16:59;94819.03;;;13.59;100.00
12077;BME280;12420;42.676;23.262;2023-05-19T00:19:26;94810.50;;;13.57;100.00
12077;BME280;12420;42.676;23.262;2023-05-19T00:21:56;94805.19;;;13.45;100.00
12077;BME280;12420;42.676;23.262;2023-05-19T00:24:23;94803.75;;;13.52;100.00
12077;BME280;12420;42.676;23.262;2023-05-19T00:26:50;94804.94;;;13.57;100.00
12077;BME280;12420;42.676;23.262;2023-05-19T00:29:19;94795.63;;;13.54;100.00
12077;BME280;12420;42.676;23.262;2023-05-19T00:31:45;94797.78;;;13.48;100.00
12077;BME280;12420;42.676;23.262;2023-05-19T00:34:12;94782.19;;;13.45;100.00
12077;BME280;12420;42.676;23.262;2023-05-19T00:36:39;94793.38;;;13.53;100.00
12077;BME280;12420;42.676;23.262;2023-05-19T00:39:06;94801.78;;;13.60;100.00
12077;BME280;12420;42.676;23.262;2023-05-19T00:41:32;94809.81;;;13.64;100.00
12077;BME280;12420;42.676;23.262;2023-05-19T00:43:59;94791.22;;;13.59;100.00
12077;BME280;12420;42.676;23.262;2023-05-19T00:46:28;94798.63;;;13.56;100.00
12077;BME280;12420;42.676;23.262;2023-05-19T00:48:55;94783.34;;;13.50;100.00
12077;BME280;12420;42.676;23.262;2023-05-19T00:51:22;94786.94;;;13.58;100.00
12077;BME280;12420;42.676;23.262;2023-05-19T00:53:51;94767.75;;;13.46;100.00
12077;BME280;12420;42.676;23.262;2023-05-19T00:56:19;94788.97;;;13.57;100.00
12077;BME280;12420;42.676;23.262;2023-05-19T00:58:47;94769.19;;;13.40;100.00
12077;BME280;12420;42.676;23.262;2023-05-19T01:01:14;94781.25;;;13.42;100.00
12077;BME280;12420;42.676;23.262;2023-05-19T01:03:43;94782.63;;;13.49;100.00
12077;BME280;12420;42.676;23.262;2023-05-19T01:06:11;94788.72;;;13.48;100.00
12077;BME280;12420;42.676;23.262;2023-05-19T01:08:38;94790.97;;;13.49;100.00
12077;BME280;12420;42.676;23.262;2023-05-19T01:11:05;94763.16;;;13.28;100.00
12077;BME280;12420;42.676;23.262;2023-05-19T01:13:33;94788.25;;;13.57;100.00
12077;BME280;12420;42.676;23.262;2023-05-19T01:16:04;94772.59;;;13.46;100.00
12077;BME280;12420;42.676;23.262;2023-05-19T01:18:45;94796.78;;;13.59;100.00
12077;BME280;12420;42.676;23.262;2023-05-19T01:24:27;94802.06;;;13.49;100.00
12077;BME280;12420;42.676;23.262;2023-05-19T01:30:20;94769.75;;;13.25;100.00
12077;BME280;12420;42.676;23.262;2023-05-19T01:32:52;94791.78;;;13.36;100.00
12077;BME280;12420;42.676;23.262;2023-05-19T01:35:21;94783.88;;;13.27;100.00
12077;BME280;12420;42.676;23.262;2023-05-19T01:37:50;94793.19;;;13.30;100.00
12077;BME280;12420;42.676;23.262;2023-05-19T01:40:17;94786.66;;;13.27;100.00
12077;BME280;12420;42.676;23.262;2023-05-19T01:42:45;94789.03;;;13.23;100.00
12077;BME280;12420;42.676;23.262;2023-05-19T01:45:14;94794.16;;;13.19;100.00
12077;BME280;12420;42.676;23.262;2023-05-19T01:47:47;94799.50;;;13.17;100.00
12077;BME280;12420;42.676;23.262;2023-05-19T01:50:14;94799.50;;;13.17;100.00
12077;BME280;12420;42.676;23.262;2023-05-19T01:52:41;94799.97;;;13.08;100.00
12077;BME280;12420;42.676;23.262;2023-05-19T01:55:08;94801.03;;;13.04;100.00
12077;BME280;12420;42.676;23.262;2023-05-19T01:57:42;94801.16;;;12.99;100.00
12077;BME280;12420;42.676;23.262;2023-05-19T02:00:18;94800.22;;;12.96;100.00
12077;BME280;12420;42.676;23.262;2023-05-19T02:02:55;94799.69;;;12.85;100.00
12077;BME280;12420;42.676;23.262;2023-05-19T02:05:35;94811.16;;;12.81;100.00
12077;BME280;12420;42.676;23.262;2023-05-19T02:08:11;94780.63;;;12.68;100.00
12077;BME280;12420;42.676;23.262;2023-05-19T02:10:40;94758.69;;;12.43;100.00
12077;BME280;12420;42.676;23.262;2023-05-19T02:13:12;94803.50;;;12.60;100.00
12077;BME280;12420;42.676;23.262;2023-05-19T02:15:44;94796.13;;;12.63;100.00
12077;BME280;12420;42.676;23.262;2023-05-19T02:18:13;94785.06;;;12.50;100.00
12077;BME280;12420;42.676;23.262;2023-05-19T02:20:42;94784.94;;;12.42;100.00
12077;BME280;12420;42.676;23.262;2023-05-19T02:23:09;94806.28;;;12.60;100.00
12077;BME280;12420;42.676;23.262;2023-05-19T02:25:35;94814.41;;;12.58;100.00
12077;BME280;12420;42.676;23.262;2023-05-19T02:28:02;94793.69;;;12.46;100.00
12077;BME280;12420;42.676;23.262;2023-05-19T02:30:31;94807.97;;;12.64;100.00
12077;BME280;12420;42.676;23.262;2023-05-19T02:32:59;94801.44;;;12.74;100.00
12077;BME280;12420;42.676;23.262;2023-05-19T02:35:25;94803.69;;;12.76;100.00
12077;BME280;12420;42.676;23.262;2023-05-19T02:37:52;94794.94;;;12.72;100.00
12077;BME280;12420;42.676;23.262;2023-05-19T02:40:19;94805.84;;;12.70;100.00
12077;BME280;12420;42.676;23.262;2023-05-19T02:42:46;94795.31;;;12.42;100.00
12077;BME280;12420;42.676;23.262;2023-05-19T02:45:13;94806.81;;;12.59;100.00
12077;BME280;12420;42.676;23.262;2023-05-19T02:47:39;94812.56;;;12.61;100.00
12077;BME280;12420;42.676;23.262;2023-05-19T02:50:08;94812.91;;;12.57;100.00
12077;BME280;12420;42.676;23.262;2023-05-19T02:52:35;94810.66;;;12.56;100.00
12077;BME280;12420;42.676;23.262;2023-05-19T02:55:02;94824.00;;;12.57;100.00
12077;BME280;12420;42.676;23.262;2023-05-19T02:57:29;94812.25;;;12.51;100.00
12077;BME280;12420;42.676;23.262;2023-05-19T02:59:57;94814.84;;;12.49;100.00
12077;BME280;12420;42.676;23.262;2023-05-19T03:02:24;94812.25;;;12.51;100.00
12077;BME280;12420;42.676;23.262;2023-05-19T03:04:50;94819.63;;;12.49;100.00
12077;BME280;12420;42.676;23.262;2023-05-19T03:07:18;94795.97;;;12.34;100.00
12077;BME280;12420;42.676;23.262;2023-05-19T03:09:49;94814.50;;;12.53;100.00
12077;BME280;12420;42.676;23.262;2023-05-19T03:12:18;94817.06;;;12.51;100.00
12077;BME280;12420;42.676;23.262;2023-05-19T03:14:45;94828.41;;;12.53;100.00
12077;BME280;12420;42.676;23.262;2023-05-19T03:17:11;94831.28;;;12.60;100.00
12077;BME280;12420;42.676;23.262;2023-05-19T03:19:38;94824.22;;;12.73;100.00
12077;BME280;12420;42.676;23.262;2023-05-19T03:22:05;94820.69;;;12.72;100.00
12077;BME280;12420;42.676;23.262;2023-05-19T03:24:33;94824.00;;;12.71;100.00
12077;BME280;12420;42.676;23.262;2023-05-19T03:27:00;94828.81;;;12.70;100.00
12077;BME280;12420;42.676;23.262;2023-05-19T03:29:29;94812.44;;;12.67;100.00
12077;BME280;12420;42.676;23.262;2023-05-19T03:31:56;94824.41;;;12.62;100.00
12077;BME280;12420;42.676;23.262;2023-05-19T03:34:24;94824.00;;;12.57;100.00
12077;BME280;12420;42.676;23.262;2023-05-19T03:36:50;94784.41;;;12.30;100.00
12077;BME280;12420;42.676;23.262;2023-05-19T03:39:17;94825.72;;;12.60;100.00
12077;BME280;12420;42.676;23.262;2023-05-19T03:41:45;94826.34;;;12.67;100.00
12077;BME280;12420;42.676;23.262;2023-05-19T03:44:12;94827.41;;;12.64;100.00
12077;BME280;12420;42.676;23.262;2023-05-19T03:46:38;94815.91;;;12.59;100.00
12077;BME280;12420;42.676;23.262;2023-05-19T03:49:05;94817.50;;;12.55;100.00
12077;BME280;12420;42.676;23.262;2023-05-19T03:51:32;94817.81;;;12.65;100.00
12077;BME280;12420;42.676;23.262;2023-05-19T03:53:59;94821.44;;;12.73;100.00
12077;BME280;12420;42.676;23.262;2023-05-19T03:56:25;94824.72;;;12.71;100.00
12077;BME280;12420;42.676;23.262;2023-05-19T03:58:53;94827.06;;;12.80;100.00
12077;BME280;12420;42.676;23.262;2023-05-19T04:01:20;94829.13;;;12.80;100.00
12077;BME280;12420;42.676;23.262;2023-05-19T04:03:47;94836.78;;;12.87;100.00
12077;BME280;12420;42.676;23.262;2023-05-19T04:06:14;94829.94;;;12.88;100.00
12077;BME280;12420;42.676;23.262;2023-05-19T04:08:41;94831.72;;;12.99;100.00
12077;BME280;12420;42.676;23.262;2023-05-19T04:11:08;94840.78;;;13.13;100.00
12077;BME280;12420;42.676;23.262;2023-05-19T04:13:35;94830.28;;;13.19;100.00
12077;BME280;12420;42.676;23.262;2023-05-19T04:16:04;94841.66;;;13.42;100.00
12077;BME280;12420;42.676;23.262;2023-05-19T04:18:31;94840.34;;;13.56;100.00
12077;BME280;12420;42.676;23.262;2023-05-19T04:20:58;94827.97;;;13.65;100.00
12077;BME280;12420;42.676;23.262;2023-05-19T04:23:24;94840.28;;;13.70;100.00
12077;BME280;12420;42.676;23.262;2023-05-19T04:25:51;94845.75;;;13.62;100.00
12077;BME280;12420;42.676;23.262;2023-05-19T04:28:18;94807.34;;;13.39;100.00
12077;BME280;12420;42.676;23.262;2023-05-19T04:30:45;94854.03;;;13.75;100.00
12077;BME280;12420;42.676;23.262;2023-05-19T04:33:13;94854.72;;;13.68;100.00
12077;BME280;12420;42.676;23.262;2023-05-19T04:35:40;94854.31;;;13.64;100.00
12077;BME280;12420;42.676;23.262;2023-05-19T04:38:08;94841.41;;;13.53;100.00
12077;BME280;12420;42.676;23.262;2023-05-19T04:40:36;94857.03;;;13.77;100.00
12077;BME280;12420;42.676;23.262;2023-05-19T04:43:04;94850.22;;;13.65;100.00
12077;BME280;12420;42.676;23.262;2023-05-19T04:45:31;94832.03;;;13.43;100.00
12077;BME280;12420;42.676;23.262;2023-05-19T04:47:58;94847.81;;;13.61;100.00
12077;BME280;12420;42.676;23.262;2023-05-19T04:50:27;94826.09;;;13.60;100.00
12077;BME280;12420;42.676;23.262;2023-05-19T04:52:55;94867.94;;;13.96;100.00
12077;BME280;12420;42.676;23.262;2023-05-19T04:55:23;94862.16;;;14.15;100.00
12077;BME280;12420;42.676;23.262;2023-05-19T04:57:50;94865.88;;;13.97;100.00
12077;BME280;12420;42.676;23.262;2023-05-19T05:00:17;94856.91;;;14.11;100.00
12077;BME280;12420;42.676;23.262;2023-05-19T05:02:44;94834.09;;;13.84;100.00
12077;BME280;12420;42.676;23.262;2023-05-19T05:05:11;94865.84;;;14.10;100.00
12077;BME280;12420;42.676;23.262;2023-05-19T05:07:39;94843.44;;;13.95;100.00
12077;BME280;12420;42.676;23.262;2023-05-19T05:10:07;94829.81;;;13.83;100.00
12077;BME280;12420;42.676;23.262;2023-05-19T05:12:34;94867.53;;;14.13;100.00
12077;BME280;12420;42.676;23.262;2023-05-19T05:15:02;94873.34;;;14.23;100.00
12077;BME280;12420;42.676;23.262;2023-05-19T05:17:29;94872.06;;;14.03;100.00
12077;BME280;12420;42.676;23.262;2023-05-19T05:19:56;94859.31;;;13.86;100.00
12077;BME280;12420;42.676;23.262;2023-05-19T05:22:24;94845.22;;;13.84;100.00
12077;BME280;12420;42.676;23.262;2023-05-19T05:24:54;94865.97;;;13.83;100.00
12077;BME280;12420;42.676;23.262;2023-05-19T05:27:21;94845.41;;;13.86;100.00
12077;BME280;12420;42.676;23.262;2023-05-19T05:29:48;94859.31;;;13.86;100.00
12077;BME280;12420;42.676;23.262;2023-05-19T05:32:15;94862.84;;;14.08;100.00
12077;BME280;12420;42.676;23.262;2023-05-19T05:34:42;94860.06;;;14.08;100.00
12077;BME280;12420;42.676;23.262;2023-05-19T05:37:09;94871.59;;;13.91;100.00
12077;BME280;12420;42.676;23.262;2023-05-19T05:39:36;94870.50;;;13.94;100.00
12077;BME280;12420;42.676;23.262;2023-05-19T05:42:05;94881.03;;;14.09;100.00
12077;BME280;12420;42.676;23.262;2023-05-19T05:44:33;94847.03;;;14.03;100.00
12077;BME280;12420;42.676;23.262;2023-05-19T05:47:03;94862.66;;;14.34;100.00
12077;BME280;12420;42.676;23.262;2023-05-19T05:49:31;94872.31;;;14.33;100.00
12077;BME280;12420;42.676;23.262;2023-05-19T05:52:01;94873.88;;;14.21;100.00
12077;BME280;12420;42.676;23.262;2023-05-19T05:54:29;94888.75;;;14.24;100.00
12077;BME280;12420;42.676;23.262;2023-05-19T05:56:56;94871.31;;;14.52;100.00
12077;BME280;12420;42.676;23.262;2023-05-19T05:59:25;94879.47;;;14.50;100.00
12077;BME280;12420;42.676;23.262;2023-05-19T06:01:52;94889.28;;;14.72;100.00
12077;BME280;12420;42.676;23.262;2023-05-19T06:04:19;94888.22;;;14.83;100.00
12077;BME280;12420;42.676;23.262;2023-05-19T06:06:46;94882.63;;;14.75;100.00
12077;BME280;12420;42.676;23.262;2023-05-19T06:09:12;94896.88;;;15.00;100.00
12077;BME280;12420;42.676;23.262;2023-05-19T06:11:39;94900.25;;;15.06;100.00
12077;BME280;12420;42.676;23.262;2023-05-19T06:14:06;94898.75;;;15.05;100.00
12077;BME280;12420;42.676;23.262;2023-05-19T06:16:34;94907.75;;;15.19;100.00
12077;BME280;12420;42.676;23.262;2023-05-19T06:19:01;94937.84;;;15.20;100.00
12077;BME280;12420;42.676;23.262;2023-05-19T06:21:27;94870.22;;;15.28;100.00
12077;BME280;12420;42.676;23.262;2023-05-19T06:23:54;94902.84;;;15.63;100.00
12077;BME280;12420;42.676;23.262;2023-05-19T06:26:21;94879.19;;;15.49;100.00
12077;BME280;12420;42.676;23.262;2023-05-19T06:28:48;94902.72;;;15.84;100.00
12077;BME280;12420;42.676;23.262;2023-05-19T06:31:14;94830.69;;;15.52;100.00
12077;BME280;12420;42.676;23.262;2023-05-19T06:33:43;94896.06;;;15.95;100.00
12077;BME280;12420;42.676;23.262;2023-05-19T06:36:09;94869.44;;;15.87;100.00
12077;BME280;12420;42.676;23.262;2023-05-19T06:38:37;94871.13;;;15.97;100.00
12077;BME280;12420;42.676;23.262;2023-05-19T06:41:03;94870.38;;;16.04;100.00
12077;BME280;12420;42.676;23.262;2023-05-19T06:43:30;94897.38;;;16.17;100.00
12077;BME280;12420;42.676;23.262;2023-05-19T06:45:59;94900.91;;;16.33;100.00
12077;BME280;12420;42.676;23.262;2023-05-19T06:48:26;94924.38;;;16.38;100.00
12077;BME280;12420;42.676;23.262;2023-05-19T06:50:54;94902.94;;;16.56;100.00
12077;BME280;12420;42.676;23.262;2023-05-19T06:53:21;94821.06;;;16.07;100.00
12077;BME280;12420;42.676;23.262;2023-05-19T06:55:48;94897.75;;;16.44;100.00
12077;BME280;12420;42.676;23.262;2023-05-19T06:58:15;94903.47;;;16.92;100.00
12077;BME280;12420;42.676;23.262;2023-05-19T07:00:42;94919.50;;;17.00;100.00
12077;BME280;12420;42.676;23.262;2023-05-19T07:03:09;94932.69;;;17.07;100.00
12077;BME280;12420;42.676;23.262;2023-05-19T07:05:36;94919.50;;;17.00;100.00
12077;BME280;12420;42.676;23.262;2023-05-19T07:08:04;94914.78;;;17.18;100.00
12077;BME280;12420;42.676;23.262;2023-05-19T07:10:33;94912.34;;;17.14;100.00
12077;BME280;12420;42.676;23.262;2023-05-19T07:12:59;94871.22;;;16.91;100.00
12077;BME280;12420;42.676;23.262;2023-05-19T07:15:26;94858.78;;;16.62;100.00
12077;BME280;12420;42.676;23.262;2023-05-19T07:17:53;94850.47;;;16.39;100.00
12077;BME280;12420;42.676;23.262;2023-05-19T07:20:20;94928.41;;;17.06;100.00
12077;BME280;12420;42.676;23.262;2023-05-19T07:22:47;94919.06;;;17.11;100.00
12077;BME280;12420;42.676;23.262;2023-05-19T07:25:15;94853.94;;;16.78;100.00
12077;BME280;12420;42.676;23.262;2023-05-19T07:27:42;94888.91;;;17.02;100.00
12077;BME280;12420;42.676;23.262;2023-05-19T07:30:10;94899.63;;;17.28;100.00
12077;BME280;12420;42.676;23.262;2023-05-19T07:32:37;94934.88;;;17.72;100.00
12077;BME280;12420;42.676;23.262;2023-05-19T07:35:05;94968.38;;;17.95;100.00
12077;BME280;12420;42.676;23.262;2023-05-19T07:37:32;94932.66;;;18.03;100.00
12077;BME280;12420;42.676;23.262;2023-05-19T07:39:59;94933.47;;;18.21;100.00
12077;BME280;12420;42.676;23.262;2023-05-19T07:42:27;94928.97;;;18.26;100.00
12077;BME280;12420;42.676;23.262;2023-05-19T07:44:54;94923.78;;;18.22;100.00
12077;BME280;12420;42.676;23.262;2023-05-19T07:47:21;94922.91;;;18.37;100.00
12077;BME280;12420;42.676;23.262;2023-05-19T07:49:48;94930.34;;;18.42;91.33
12077;BME280;12420;42.676;23.262;2023-05-19T07:52:15;94893.41;;;18.11;93.16
12077;BME280;12420;42.676;23.262;2023-05-19T07:54:42;94886.16;;;17.75;91.99
12077;BME280;12420;42.676;23.262;2023-05-19T07:57:09;94929.94;;;18.20;90.35
12077;BME280;12420;42.676;23.262;2023-05-19T07:59:37;94927.19;;;18.38;92.95
12077;BME280;12420;42.676;23.262;2023-05-19T08:02:04;94901.91;;;18.46;99.17
12077;BME280;12420;42.676;23.262;2023-05-19T08:04:31;94927.75;;;18.86;94.47
12077;BME280;12420;42.676;23.262;2023-05-19T08:06:57;94925.84;;;18.89;92.34
12077;BME280;12420;42.676;23.262;2023-05-19T08:09:24;94889.34;;;18.72;88.41
12077;BME280;12420;42.676;23.262;2023-05-19T08:11:52;94945.41;;;19.14;90.09
12077;BME280;12420;42.676;23.262;2023-05-19T08:14:19;94915.53;;;18.92;89.92
12077;BME280;12420;42.676;23.262;2023-05-19T08:16:48;94920.06;;;19.22;88.53
12077;BME280;12420;42.676;23.262;2023-05-19T08:19:16;94919.44;;;19.14;86.40
12077;BME280;12420;42.676;23.262;2023-05-19T08:21:42;94916.94;;;19.18;91.01
12077;BME280;12420;42.676;23.262;2023-05-19T08:24:09;94925.69;;;19.22;83.79
12077;BME280;12420;42.676;23.262;2023-05-19T08:26:36;94905.41;;;19.14;82.96
12077;BME280;12420;42.676;23.262;2023-05-19T08:29:03;94924.44;;;19.33;85.04
12077;BME280;12420;42.676;23.262;2023-05-19T08:31:30;94926.84;;;19.36;82.16
12077;BME280;12420;42.676;23.262;2023-05-19T08:33:58;94900.84;;;19.18;78.75
12077;BME280;12420;42.676;23.262;2023-05-19T08:36:25;94918.75;;;19.23;81.71
12077;BME280;12420;42.676;23.262;2023-05-19T08:38:53;94906.63;;;19.03;85.73
12077;BME280;12420;42.676;23.262;2023-05-19T08:41:21;94911.84;;;19.06;84.82
12077;BME280;12420;42.676;23.262;2023-05-19T08:43:48;94908.34;;;19.16;81.33
12077;BME280;12420;42.676;23.262;2023-05-19T08:46:15;94938.91;;;19.12;82.88
12077;BME280;12420;42.676;23.262;2023-05-19T08:48:43;94899.78;;;19.14;86.02
12077;BME280;12420;42.676;23.262;2023-05-19T08:51:17;94912.06;;;19.36;85.15
12077;BME280;12420;42.676;23.262;2023-05-19T08:53:50;94892.41;;;19.36;85.56
12077;BME280;12420;42.676;23.262;2023-05-19T08:56:22;94895.47;;;19.30;82.04
12077;BME280;12420;42.676;23.262;2023-05-19T08:58:54;94863.97;;;19.04;80.79
12077;BME280;12420;42.676;23.262;2023-05-19T09:01:24;94866.44;;;19.18;81.14
12077;BME280;12420;42.676;23.262;2023-05-19T09:03:53;94879.13;;;19.36;80.33
12077;BME280;12420;42.676;23.262;2023-05-19T09:06:21;94921.88;;;19.62;80.16
12077;BME280;12420;42.676;23.262;2023-05-19T09:08:48;94914.84;;;19.70;77.08
12077;BME280;12420;42.676;23.262;2023-05-19T09:11:15;94905.84;;;19.72;79.77
12077;BME280;12420;42.676;23.262;2023-05-19T09:13:42;94894.28;;;19.68;80.63
12077;BME280;12420;42.676;23.262;2023-05-19T09:16:09;94862.78;;;19.42;78.66
12077;BME280;12420;42.676;23.262;2023-05-19T09:18:37;94902.06;;;19.42;77.08
12077;BME280;12420;42.676;23.262;2023-05-19T09:21:05;94897.81;;;19.24;80.04
12077;BME280;12420;42.676;23.262;2023-05-19T09:23:33;94896.63;;;19.27;79.78
12077;BME280;12420;42.676;23.262;2023-05-19T09:26:01;94887.38;;;19.34;80.05
12077;BME280;12420;42.676;23.262;2023-05-19T09:28:30;94899.25;;;19.42;81.31
12077;BME280;12420;42.676;23.262;2023-05-19T09:31:01;94819.91;;;18.97;83.15
12077;BME280;12420;42.676;23.262;2023-05-19T09:33:29;94839.69;;;19.17;80.63
12077;BME280;12420;42.676;23.262;2023-05-19T09:35:58;94883.13;;;19.60;79.45
12077;BME280;12420;42.676;23.262;2023-05-19T09:38:25;94887.09;;;19.75;78.35
12077;BME280;12420;42.676;23.262;2023-05-19T09:40:59;94896.22;;;20.02;80.65
12077;BME280;12420;42.676;23.262;2023-05-19T09:43:27;94894.09;;;20.20;77.10
12077;BME280;12420;42.676;23.262;2023-05-19T09:45:58;94894.84;;;20.21;79.82
12077;BME280;12420;42.676;23.262;2023-05-19T09:48:25;94892.19;;;20.32;77.82
12077;BME280;12420;42.676;23.262;2023-05-19T09:50:53;94886.66;;;20.52;77.85
12077;BME280;12420;42.676;23.262;2023-05-19T09:53:21;94881.59;;;20.50;73.37
12077;BME280;12420;42.676;23.262;2023-05-19T09:55:50;94887.34;;;20.43;75.46
12077;BME280;12420;42.676;23.262;2023-05-19T09:58:23;94908.81;;;20.48;74.24
12077;BME280;12420;42.676;23.262;2023-05-19T10:00:51;94875.66;;;20.36;74.44
12077;BME280;12420;42.676;23.262;2023-05-19T10:03:20;94870.00;;;20.27;70.29
12077;BME280;12420;42.676;23.262;2023-05-19T10:05:49;94880.28;;;20.51;74.20
12077;BME280;12420;42.676;23.262;2023-05-19T10:08:16;94868.78;;;20.57;70.66
12077;BME280;12420;42.676;23.262;2023-05-19T10:10:45;94882.56;;;20.72;75.03
12077;BME280;12420;42.676;23.262;2023-05-19T10:13:12;94838.13;;;20.51;69.50
12077;BME280;12420;42.676;23.262;2023-05-19T10:15:40;94868.94;;;20.59;71.23
12077;BME280;12420;42.676;23.262;2023-05-19T10:18:08;94870.22;;;20.48;75.26
12077;BME280;12420;42.676;23.262;2023-05-19T10:20:35;94848.75;;;20.53;72.86
12077;BME280;12420;42.676;23.262;2023-05-19T10:23:02;94853.84;;;20.64;73.20
12077;BME280;12420;42.676;23.262;2023-05-19T10:25:29;94860.78;;;20.63;71.95
12077;BME280;12420;42.676;23.262;2023-05-19T10:28:00;94851.19;;;20.66;70.63
12077;BME280;12420;42.676;23.262;2023-05-19T10:30:31;94862.31;;;20.74;68.79
12077;BME280;12420;42.676;23.262;2023-05-19T10:33:00;94848.81;;;20.72;72.66
12077;BME280;12420;42.676;23.262;2023-05-19T10:36:01;94851.34;;;20.78;72.60
12077;BME280;12420;42.676;23.262;2023-05-19T10:38:40;94836.78;;;20.52;71.65
12077;BME280;12420;42.676;23.262;2023-05-19T10:41:11;94854.28;;;20.70;68.86
12077;BME280;12420;42.676;23.262;2023-05-19T10:43:54;94849.59;;;20.92;67.60
12077;BME280;12420;42.676;23.262;2023-05-19T10:46:25;94857.41;;;20.94;69.33
12077;BME280;12420;42.676;23.262;2023-05-19T10:48:54;94844.84;;;20.95;66.96
12077;BME280;12420;42.676;23.262;2023-05-19T10:51:27;94846.31;;;21.15;68.89
12077;BME280;12420;42.676;23.262;2023-05-19T10:53:55;94848.97;;;21.33;67.15
12077;BME280;12420;42.676;23.262;2023-05-19T10:56:27;94837.75;;;21.42;68.20
12077;BME280;12420;42.676;23.262;2023-05-19T10:58:57;94861.25;;;21.57;65.15
12077;BME280;12420;42.676;23.262;2023-05-19T11:01:29;94837.34;;;21.77;66.10
12077;BME280;12420;42.676;23.262;2023-05-19T11:04:04;94820.03;;;21.61;66.72
12077;BME280;12420;42.676;23.262;2023-05-19T11:06:32;94832.72;;;21.82;64.18
12077;BME280;12420;42.676;23.262;2023-05-19T11:09:01;94827.22;;;21.94;61.10
12077;BME280;12420;42.676;23.262;2023-05-19T11:11:44;94812.88;;;21.80;63.91
12077;BME280;12420;42.676;23.262;2023-05-19T11:14:11;94826.78;;;21.87;65.82
12077;BME280;12420;42.676;23.262;2023-05-19T11:16:39;94821.47;;;21.82;61.30
12077;BME280;12420;42.676;23.262;2023-05-19T11:19:16;94824.06;;;21.99;63.26
12077;BME280;12420;42.676;23.262;2023-05-19T11:21:48;94811.50;;;21.91;65.43
12077;BME280;12420;42.676;23.262;2023-05-19T11:24:32;94815.63;;;21.99;62.20
12077;BME280;12420;42.676;23.262;2023-05-19T11:27:19;94822.31;;;21.94;58.54
12077;BME280;12420;42.676;23.262;2023-05-19T11:30:07;94827.69;;;21.80;59.65
12077;BME280;12420;42.676;23.262;2023-05-19T11:32:39;94815.81;;;21.82;62.62
12077;BME280;12420;42.676;23.262;2023-05-19T11:35:09;94812.56;;;21.85;63.79
12077;BME280;12420;42.676;23.262;2023-05-19T11:37:37;94798.63;;;21.78;63.95
12077;BME280;12420;42.676;23.262;2023-05-19T11:40:06;94802.22;;;21.78;62.25
12077;BME280;12420;42.676;23.262;2023-05-19T11:42:36;94811.25;;;21.77;57.81
12077;BME280;12420;42.676;23.262;2023-05-19T11:45:04;94814.41;;;21.61;61.07
12077;BME280;12420;42.676;23.262;2023-05-19T11:47:31;94800.66;;;21.36;62.08
12077;BME280;12420;42.676;23.262;2023-05-19T11:49:58;94804.53;;;21.31;60.53
12077;BME280;12420;42.676;23.262;2023-05-19T11:52:30;94820.84;;;21.23;61.62
12077;BME280;12420;42.676;23.262;2023-05-19T11:54:59;94824.84;;;21.30;62.40
12077;BME280;12420;42.676;23.262;2023-05-19T11:57:26;94833.00;;;21.16;64.22
12077;BME280;12420;42.676;23.262;2023-05-19T11:59:55;94829.00;;;21.09;66.51
12077;BME280;12420;42.676;23.262;2023-05-19T12:02:23;94836.72;;;20.89;68.26
12077;BME280;12420;42.676;23.262;2023-05-19T12:04:52;94834.59;;;20.14;69.58
12077;BME280;12420;42.676;23.262;2023-05-19T12:07:20;94847.50;;;19.80;72.79
12077;BME280;12420;42.676;23.262;2023-05-19T12:09:50;94850.66;;;19.22;80.24
12077;BME280;12420;42.676;23.262;2023-05-19T12:12:19;94841.88;;;19.08;82.19
12077;BME280;12420;42.676;23.262;2023-05-19T12:14:47;94862.50;;;18.86;79.07
12077;BME280;12420;42.676;23.262;2023-05-19T12:17:17;94861.88;;;18.53;88.71
12077;BME280;12420;42.676;23.262;2023-05-19T12:19:47;94862.22;;;18.32;88.89
12077;BME280;12420;42.676;23.262;2023-05-19T12:22:14;94880.19;;;18.04;97.60
12077;BME280;12420;42.676;23.262;2023-05-19T12:24:42;94882.03;;;17.84;100.00
12077;BME280;12420;42.676;23.262;2023-05-19T12:27:17;94877.41;;;17.71;100.00
12077;BME280;12420;42.676;23.262;2023-05-19T12:29:48;94879.84;;;17.34;100.00
12077;BME280;12420;42.676;23.262;2023-05-19T12:32:15;94878.19;;;17.23;100.00
12077;BME280;12420;42.676;23.262;2023-05-19T12:34:44;94874.53;;;17.05;100.00
12077;BME280;12420;42.676;23.262;2023-05-19T12:37:13;94870.44;;;16.99;100.00
12077;BME280;12420;42.676;23.262;2023-05-19T12:39:41;94868.22;;;17.05;100.00
12077;BME280;12420;42.676;23.262;2023-05-19T12:42:09;94857.59;;;17.03;100.00
12077;BME280;12420;42.676;23.262;2023-05-19T12:44:45;94840.81;;;17.03;100.00
12077;BME280;12420;42.676;23.262;2023-05-19T12:47:13;94845.56;;;17.26;100.00
12077;BME280;12420;42.676;23.262;2023-05-19T12:49:52;94814.56;;;17.31;100.00
12077;BME280;12420;42.676;23.262;2023-05-19T12:52:28;94839.75;;;17.64;100.00
12077;BME280;12420;42.676;23.262;2023-05-19T12:54:58;94833.47;;;17.89;100.00
12077;BME280;12420;42.676;23.262;2023-05-19T12:57:26;94796.72;;;17.85;93.86